Time;durP1;ratioP1;P1;durP2;ratioP2;P2;SDS_P1;SDS_P2;PMS_P1;PMS_P2;Temp;Humidity;BMP_temperature;BMP_pressure;BME280_temperature;BME280_humidity;BME280_pressure;Samples;Min_cycle;Max_cycle;Signal;HPM_P1;HPM_P2
2022/09/09 00:02:19;;;;;;;8.97;8.10;;;15.20;99.90;;;;;;5054730;28;20242;-66
2022/09/09 00:05:14;;;;;;;6.80;6.30;;;15.20;99.90;;;;;;5055519;28;20631;-67
2022/09/09 00:07:43;;;;;;;7.60;6.90;;;15.20;99.90;;;;;;5049450;28;20317;-67
2022/09/09 00:10:25;;;;;;;7.23;6.63;;;15.20;99.90;;;;;;5055802;28;20203;-67
2022/09/09 00:13:19;;;;;;;7.67;6.97;;;15.20;99.90;;;;;;5052803;28;20230;-66
2022/09/09 00:16:05;;;;;;;8.40;7.13;;;15.20;99.90;;;;;;5051437;28;20713;-66
2022/09/09 00:18:52;;;;;;;7.53;6.67;;;15.10;99.90;;;;;;5045974;28;20222;-66
2022/09/09 00:21:19;;;;;;;7.50;6.90;;;15.10;99.90;;;;;;5049115;28;20194;-67
2022/09/09 00:23:55;;;;;;;8.17;7.20;;;15.10;99.90;;;;;;5062321;28;20199;-66
2022/09/09 00:26:34;;;;;;;8.63;6.70;;;15.10;99.90;;;;;;5063709;28;20190;-67
2022/09/09 00:29:11;;;;;;;8.53;7.60;;;15.10;99.90;;;;;;5054830;28;20201;-67
2022/09/09 00:31:37;;;;;;;8.07;7.27;;;15.10;99.90;;;;;;5055211;28;20304;-66
2022/09/09 00:34:16;;;;;;;7.33;6.73;;;15.10;99.90;;;;;;5055487;28;20795;-66
2022/09/09 00:36:44;;;;;;;8.00;7.40;;;15.00;99.90;;;;;;5058866;28;20206;-66
2022/09/09 00:39:37;;;;;;;7.73;7.03;;;15.00;99.90;;;;;;5060164;28;20218;-66
2022/09/09 00:42:19;;;;;;;8.47;7.70;;;15.00;99.90;;;;;;5052450;28;20537;-66
2022/09/09 00:45:11;;;;;;;8.03;7.33;;;15.00;99.90;;;;;;5057173;28;20195;-67
2022/09/09 00:47:45;;;;;;;8.07;7.37;;;15.00;99.90;;;;;;5054269;28;20203;-67
2022/09/09 00:50:11;;;;;;;7.27;6.67;;;15.00;99.90;;;;;;5060164;28;20548;-67
2022/09/09 00:52:49;;;;;;;7.70;7.10;;;15.00;99.90;;;;;;5056525;28;20201;-67
2022/09/09 00:55:32;;;;;;;7.77;7.13;;;14.90;99.90;;;;;;5047289;28;20187;-67
2022/09/09 00:57:58;;;;;;;8.30;7.50;;;15.00;99.90;;;;;;5048563;28;20209;-68
2022/09/09 01:00:26;;;;;;;8.37;7.67;;;14.90;99.90;;;;;;5058219;28;20186;-67
2022/09/09 01:03:14;;;;;;;7.97;7.30;;;14.90;99.90;;;;;;5047080;28;20705;-66
2022/09/09 01:05:54;;;;;;;7.97;7.27;;;14.90;99.90;;;;;;5047504;28;20198;-66
2022/09/09 01:08:55;;;;;;;8.47;7.77;;;14.80;99.90;;;;;;5056560;28;20209;-67
2022/09/09 01:11:24;;;;;;;8.27;7.57;;;14.80;99.90;;;;;;5060882;28;21001;-68
2022/09/09 01:13:58;;;;;;;8.97;8.07;;;14.80;99.90;;;;;;5056883;28;20239;-66
2022/09/09 01:16:26;;;;;;;9.53;8.27;;;14.80;99.90;;;;;;5062932;28;20197;-66
2022/09/09 01:18:54;;;;;;;8.67;7.97;;;14.80;99.90;;;;;;5056200;28;20194;-68
2022/09/09 01:21:43;;;;;;;8.93;8.23;;;14.80;99.90;;;;;;5066982;28;20487;-67
2022/09/09 01:24:30;;;;;;;9.57;8.77;;;14.80;99.90;;;;;;5059288;28;20189;-67
2022/09/09 01:27:00;;;;;;;8.27;7.57;;;14.80;99.90;;;;;;5063909;28;20715;-67
2022/09/09 01:29:26;;;;;;;9.20;8.27;;;14.80;99.90;;;;;;5064631;28;20167;-67
2022/09/09 01:32:00;;;;;;;9.57;8.80;;;14.80;99.90;;;;;;5058090;28;20571;-67
2022/09/09 01:34:31;;;;;;;9.13;8.33;;;14.80;99.90;;;;;;5056031;28;20214;-66
2022/09/09 01:37:04;;;;;;;8.47;7.67;;;14.80;99.90;;;;;;5055376;28;20190;-66
2022/09/09 01:39:31;;;;;;;8.93;8.13;;;14.80;99.90;;;;;;5052234;28;20179;-66
2022/09/09 01:41:57;;;;;;;8.80;8.00;;;14.80;99.90;;;;;;5049212;28;20206;-78
2022/09/09 01:44:24;;;;;;;8.40;7.60;;;14.80;99.90;;;;;;5036261;28;20641;-68
2022/09/09 01:46:49;;;;;;;9.70;8.80;;;14.80;99.90;;;;;;5051574;28;20201;-79
2022/09/09 01:49:16;;;;;;;9.77;8.97;;;14.80;99.90;;;;;;5055273;28;20198;-66
2022/09/09 01:51:46;;;;;;;10.30;9.40;;;14.80;99.90;;;;;;5058923;28;20214;-66
2022/09/09 01:54:11;;;;;;;9.40;8.60;;;14.80;99.90;;;;;;5059245;28;20189;-66
2022/09/09 01:56:54;;;;;;;9.57;8.40;;;14.70;99.90;;;;;;5042232;28;20186;-66
2022/09/09 01:59:19;;;;;;;9.40;8.40;;;14.70;99.90;;;;;;5058201;28;20217;-66
2022/09/09 02:02:09;;;;;;;9.20;8.37;;;14.70;99.90;;;;;;5056867;28;20657;-67
2022/09/09 02:04:52;;;;;;;9.47;8.50;;;14.70;99.90;;;;;;5058305;28;20547;-67
2022/09/09 02:07:39;;;;;;;8.60;7.83;;;14.70;99.90;;;;;;5056423;28;20194;-67
2022/09/09 02:10:34;;;;;;;10.20;8.10;;;14.60;99.90;;;;;;5055328;28;20248;-67
2022/09/09 02:13:08;;;;;;;8.30;7.60;;;14.60;99.90;;;;;;5058998;28;20198;-67
2022/09/09 02:16:00;;;;;;;9.67;7.50;;;14.60;99.90;;;;;;5053681;28;20186;-66
2022/09/09 02:18:55;;;;;;;8.63;7.90;;;14.60;99.90;;;;;;5046672;28;20191;-66
2022/09/09 02:21:22;;;;;;;8.10;7.47;;;14.60;99.90;;;;;;5055017;28;20209;-66
2022/09/09 02:23:51;;;;;;;8.63;7.60;;;14.60;99.90;;;;;;5045573;28;20214;-67
2022/09/09 02:26:21;;;;;;;8.23;7.57;;;14.50;99.90;;;;;;5051134;28;20255;-67
2022/09/09 02:28:49;;;;;;;11.17;10.03;;;14.50;99.90;;;;;;5062197;28;20202;-67
2022/09/09 02:31:18;;;;;;;9.17;7.83;;;14.50;99.90;;;;;;5063743;28;20246;-67
2022/09/09 02:33:52;;;;;;;9.93;9.10;;;14.50;99.90;;;;;;5060631;28;20213;-67
2022/09/09 02:36:19;;;;;;;10.00;8.73;;;14.50;99.90;;;;;;5051330;28;20619;-66
2022/09/09 02:38:50;;;;;;;8.70;7.90;;;14.50;99.90;;;;;;5060740;28;20595;-67
2022/09/09 02:41:19;;;;;;;8.67;7.87;;;14.50;99.90;;;;;;5062277;28;20198;-67
2022/09/09 02:43:44;;;;;;;9.13;8.23;;;14.40;99.90;;;;;;5050857;28;20774;-67
2022/09/09 02:46:44;;;;;;;8.47;7.77;;;14.40;99.90;;;;;;5058251;28;20296;-68
2022/09/09 02:49:46;;;;;;;10.93;7.50;;;14.40;99.90;;;;;;5041144;28;20186;-65
2022/09/09 02:52:16;;;;;;;9.57;8.67;;;14.40;99.90;;;;;;4954682;28;20215;-68
2022/09/09 02:54:43;;;;;;;9.30;8.53;;;14.40;99.90;;;;;;5042959;28;20673;-67
2022/09/09 02:57:11;;;;;;;8.80;8.00;;;14.40;99.90;;;;;;5054519;28;20210;-68
2022/09/09 02:59:38;;;;;;;8.33;7.37;;;14.30;99.90;;;;;;5062758;28;20309;-68
2022/09/09 03:02:04;;;;;;;8.50;7.47;;;14.30;99.90;;;;;;5059014;28;20189;-67
2022/09/09 03:04:30;;;;;;;8.40;7.67;;;14.30;99.90;;;;;;5055061;28;20175;-67
2022/09/09 03:06:57;;;;;;;8.63;7.87;;;14.30;99.90;;;;;;5048617;28;20525;-67
2022/09/09 03:09:23;;;;;;;7.80;7.10;;;14.30;99.90;;;;;;5053369;28;20229;-68
2022/09/09 03:11:49;;;;;;;9.27;8.23;;;14.30;99.90;;;;;;5052721;28;21010;-67
2022/09/09 03:14:15;;;;;;;8.87;7.97;;;14.20;99.90;;;;;;5049924;28;20185;-66
2022/09/09 03:16:42;;;;;;;8.90;8.10;;;14.20;99.90;;;;;;5045712;28;20218;-66
2022/09/09 03:19:08;;;;;;;9.63;8.10;;;14.20;99.90;;;;;;5054856;28;20233;-67
2022/09/09 03:21:34;;;;;;;9.23;8.43;;;14.20;99.90;;;;;;5049290;28;20589;-67
2022/09/09 03:24:03;;;;;;;7.93;7.13;;;14.20;99.90;;;;;;5050078;28;20229;-66
2022/09/09 03:26:29;;;;;;;11.40;8.20;;;14.20;99.90;;;;;;5055812;28;20190;-66
2022/09/09 03:28:54;;;;;;;9.17;8.37;;;14.20;99.90;;;;;;5046501;28;20840;-67
2022/09/09 03:31:20;;;;;;;9.60;8.70;;;14.20;99.90;;;;;;5050727;28;20216;-67
2022/09/09 03:33:46;;;;;;;8.67;7.90;;;14.20;99.90;;;;;;5048390;28;20206;-67
2022/09/09 03:36:11;;;;;;;8.53;7.73;;;14.20;99.90;;;;;;5045314;28;20561;-65
2022/09/09 03:38:37;;;;;;;8.07;7.37;;;14.20;99.90;;;;;;5058741;28;20202;-67
2022/09/09 03:41:03;;;;;;;8.17;7.03;;;14.10;99.90;;;;;;5050405;28;20195;-65
2022/09/09 03:43:29;;;;;;;7.53;6.93;;;14.10;99.90;;;;;;5050029;28;20668;-63
2022/09/09 03:45:58;;;;;;;8.30;7.57;;;14.10;99.90;;;;;;5053041;28;20201;-67
2022/09/09 03:48:25;;;;;;;8.03;7.10;;;14.10;99.90;;;;;;5054215;28;20283;-66
2022/09/09 03:50:52;;;;;;;8.20;7.50;;;14.10;99.90;;;;;;5054818;28;20210;-66
2022/09/09 03:53:20;;;;;;;8.67;7.87;;;14.10;99.90;;;;;;5054627;28;20282;-66
2022/09/09 03:55:49;;;;;;;9.03;7.20;;;14.10;99.90;;;;;;5066665;28;20190;-66
2022/09/09 03:58:18;;;;;;;7.27;6.67;;;14.10;99.90;;;;;;5063184;28;20228;-66
2022/09/09 04:00:52;;;;;;;8.47;7.67;;;14.10;99.90;;;;;;5059517;28;20190;-66
2022/09/09 04:03:18;;;;;;;8.83;7.93;;;14.00;99.90;;;;;;5059098;28;20204;-67
2022/09/09 04:05:43;;;;;;;7.53;6.93;;;14.00;99.90;;;;;;5059664;28;20191;-68
2022/09/09 04:08:11;;;;;;;8.47;7.20;;;14.00;99.90;;;;;;5036227;28;20567;-68
2022/09/09 04:10:37;;;;;;;7.20;6.60;;;14.00;99.90;;;;;;5055117;28;20205;-67
2022/09/09 04:13:03;;;;;;;8.63;7.07;;;14.00;99.90;;;;;;5056519;28;20997;-67
2022/09/09 04:15:29;;;;;;;7.97;7.20;;;13.90;99.90;;;;;;5065763;28;20194;-66
2022/09/09 04:17:55;;;;;;;9.43;6.33;;;13.90;99.90;;;;;;5058304;28;20195;-66
2022/09/09 04:20:21;;;;;;;7.40;6.80;;;13.90;99.90;;;;;;5060674;28;20178;-67
2022/09/09 04:22:47;;;;;;;7.10;6.53;;;13.90;99.90;;;;;;5054706;28;20220;-66
2022/09/09 04:25:12;;;;;;;7.73;7.10;;;13.90;99.90;;;;;;5055716;28;20649;-66
2022/09/09 04:27:38;;;;;;;7.13;6.53;;;13.90;99.90;;;;;;5054292;28;20227;-66
2022/09/09 04:30:04;;;;;;;7.93;7.23;;;13.90;99.90;;;;;;5052910;28;20693;-66
2022/09/09 04:32:31;;;;;;;7.30;6.70;;;13.90;99.90;;;;;;5053979;28;20213;-66
2022/09/09 04:34:57;;;;;;;7.57;6.83;;;13.90;99.90;;;;;;5057380;28;20187;-66
2022/09/09 04:37:24;;;;;;;7.07;6.47;;;13.90;99.90;;;;;;5053658;28;20193;-65
2022/09/09 04:39:50;;;;;;;7.97;7.17;;;13.90;99.90;;;;;;5054122;28;20183;-65
2022/09/09 04:42:16;;;;;;;8.20;6.80;;;13.90;99.90;;;;;;5048941;28;20268;-78
2022/09/09 04:44:43;;;;;;;7.63;6.93;;;13.90;99.90;;;;;;5057404;28;20237;-68
2022/09/09 04:47:09;;;;;;;7.53;6.83;;;13.90;99.90;;;;;;5050814;28;20249;-64
2022/09/09 04:49:35;;;;;;;7.60;6.80;;;13.90;99.90;;;;;;5055329;28;20652;-66
2022/09/09 04:52:01;;;;;;;7.83;7.20;;;13.90;99.90;;;;;;5048253;28;20203;-66
2022/09/09 04:54:27;;;;;;;7.03;6.37;;;13.90;99.90;;;;;;5065048;28;20213;-66
2022/09/09 04:56:52;;;;;;;7.83;7.03;;;13.90;99.90;;;;;;5058287;28;20199;-67
2022/09/09 04:59:18;;;;;;;8.07;6.63;;;13.90;99.90;;;;;;5052127;28;20287;-66
2022/09/09 05:01:43;;;;;;;6.80;6.10;;;13.90;99.90;;;;;;5048625;28;20198;-66
2022/09/09 05:04:09;;;;;;;9.00;8.07;;;13.90;99.90;;;;;;5060974;28;20694;-66
2022/09/09 05:06:36;;;;;;;7.60;6.97;;;14.00;99.90;;;;;;5053669;28;20195;-66
2022/09/09 05:09:01;;;;;;;7.03;6.43;;;14.00;99.90;;;;;;5057381;28;20292;-65
2022/09/09 05:11:32;;;;;;;8.67;7.17;;;14.00;99.90;;;;;;5059278;28;20668;-66
2022/09/09 05:13:57;;;;;;;7.50;6.90;;;14.10;99.90;;;;;;5046109;28;20281;-67
2022/09/09 05:16:23;;;;;;;7.70;6.70;;;14.10;99.90;;;;;;5054118;28;20198;-67
2022/09/09 05:18:50;;;;;;;7.63;6.93;;;14.10;99.90;;;;;;5047305;28;20203;-67
2022/09/09 05:21:17;;;;;;;6.93;6.33;;;14.20;99.90;;;;;;5052199;28;20195;-67
2022/09/09 05:23:44;;;;;;;7.00;6.23;;;14.20;99.90;;;;;;5045935;28;20214;-67
2022/09/09 05:26:13;;;;;;;6.53;5.90;;;14.20;99.90;;;;;;5050540;28;20195;-66
2022/09/09 05:28:39;;;;;;;7.07;5.80;;;14.30;99.90;;;;;;5061335;28;20275;-66
2022/09/09 05:31:12;;;;;;;6.83;6.10;;;14.30;99.90;;;;;;5054796;28;20677;-65
2022/09/09 05:33:40;;;;;;;8.07;5.77;;;14.30;99.90;;;;;;5061137;28;20692;-66
2022/09/09 05:36:08;;;;;;;6.60;6.00;;;14.40;99.90;;;;;;5063317;28;20202;-66
2022/09/09 05:38:34;;;;;;;6.03;5.50;;;14.40;99.90;;;;;;5052881;28;20217;-67
2022/09/09 05:41:01;;;;;;;5.33;4.83;;;14.50;99.90;;;;;;5053258;28;20202;-67
2022/09/09 05:43:27;;;;;;;4.67;4.20;;;14.50;99.90;;;;;;5054321;28;20214;-67
2022/09/09 05:46:04;;;;;;;5.10;4.57;;;14.60;99.90;;;;;;5055732;28;20727;-68
2022/09/09 05:48:34;;;;;;;6.07;4.90;;;14.60;99.90;;;;;;5054912;28;20198;-66
2022/09/09 05:51:00;;;;;;;11.53;8.03;;;14.60;99.90;;;;;;5055434;28;20268;-66
2022/09/09 05:53:26;;;;;;;7.27;5.83;;;14.60;99.90;;;;;;5055911;28;20194;-67
2022/09/09 05:56:01;;;;;;;9.67;4.70;;;14.60;99.90;;;;;;5060807;28;20285;-67
2022/09/09 05:58:27;;;;;;;4.87;4.47;;;14.70;99.90;;;;;;5059452;28;20398;-67
2022/09/09 06:00:55;;;;;;;3.97;3.67;;;14.70;99.90;;;;;;5052172;28;20191;-68
2022/09/09 06:03:23;;;;;;;5.93;4.30;;;14.80;99.90;;;;;;5054265;28;20198;-68
2022/09/09 06:05:57;;;;;;;8.63;4.40;;;14.80;99.90;;;;;;5061097;28;20229;-68
2022/09/09 06:08:23;;;;;;;5.37;4.77;;;14.80;99.90;;;;;;5054669;28;20196;-68
2022/09/09 06:10:48;;;;;;;5.87;4.20;;;15.00;99.90;;;;;;5059657;28;20297;-68
2022/09/09 06:13:14;;;;;;;5.10;4.57;;;15.00;99.90;;;;;;5056841;28;20194;-68
2022/09/09 06:15:49;;;;;;;4.37;4.07;;;15.10;99.90;;;;;;5050708;28;20186;-68
2022/09/09 06:18:17;;;;;;;6.03;4.27;;;15.10;99.90;;;;;;5052068;28;20194;-68
2022/09/09 06:20:43;;;;;;;4.30;4.00;;;15.20;99.90;;;;;;5053706;28;20215;-66
2022/09/09 06:23:08;;;;;;;3.87;3.57;;;15.20;99.90;;;;;;5057551;28;20230;-67
2022/09/09 06:25:34;;;;;;;5.10;4.60;;;15.30;99.90;;;;;;5057609;28;20187;-67
2022/09/09 06:27:59;;;;;;;3.90;3.60;;;15.40;99.90;;;;;;5056882;28;20647;-67
2022/09/09 06:30:25;;;;;;;6.53;4.63;;;15.40;99.90;;;;;;5060514;28;20188;-66
2022/09/09 06:32:51;;;;;;;5.00;4.37;;;15.50;99.90;;;;;;5059285;28;20704;-67
2022/09/09 06:35:16;;;;;;;3.50;3.20;;;15.60;99.90;;;;;;5054842;28;20183;-66
2022/09/09 06:37:46;;;;;;;4.67;4.00;;;15.70;99.90;;;;;;5053136;28;20281;-66
2022/09/09 06:40:11;;;;;;;4.27;3.57;;;15.70;99.90;;;;;;5049622;28;20186;-66
2022/09/09 06:42:36;;;;;;;5.00;4.50;;;15.70;99.90;;;;;;5051552;28;20708;-66
2022/09/09 06:45:02;;;;;;;7.40;4.10;;;15.70;99.90;;;;;;5060157;28;20619;-66
2022/09/09 06:47:28;;;;;;;4.90;3.37;;;15.70;99.90;;;;;;5057053;28;20195;-67
2022/09/09 06:49:53;;;;;;;6.80;4.47;;;15.70;99.90;;;;;;5055822;28;20211;-67
2022/09/09 06:52:19;;;;;;;5.13;3.60;;;15.70;99.90;;;;;;5055625;28;20211;-66
2022/09/09 06:54:45;;;;;;;5.17;3.63;;;15.70;99.90;;;;;;5057567;28;20202;-66
2022/09/09 06:57:10;;;;;;;4.20;3.10;;;15.70;99.90;;;;;;5052221;28;20186;-66
2022/09/09 06:59:36;;;;;;;3.93;3.20;;;15.80;99.90;;;;;;5053245;28;20214;-66
2022/09/09 07:02:02;;;;;;;5.07;3.27;;;15.80;99.90;;;;;;5053295;28;20211;-66
2022/09/09 07:04:28;;;;;;;5.93;3.33;;;16.00;99.90;;;;;;5060345;28;20204;-66
2022/09/09 07:06:53;;;;;;;4.17;3.33;;;16.20;99.90;;;;;;5057654;28;20191;-66
2022/09/09 07:09:20;;;;;;;5.00;2.93;;;16.40;99.90;;;;;;5051205;28;20240;-66
2022/09/09 07:11:48;;;;;;;8.23;3.20;;;16.50;99.90;;;;;;5054500;28;20217;-76
2022/09/09 07:14:14;;;;;;;3.23;2.93;;;16.60;99.90;;;;;;5056688;28;20195;-67
2022/09/09 07:16:45;;;;;;;5.83;2.93;;;16.70;99.90;;;;;;5061951;28;20199;-70
2022/09/09 07:19:11;;;;;;;6.13;2.63;;;16.80;99.90;;;;;;5053907;28;20195;-64
2022/09/09 07:21:37;;;;;;;6.60;2.50;;;17.00;99.90;;;;;;5052792;28;20217;-65
2022/09/09 07:24:03;;;;;;;3.63;2.63;;;17.20;99.90;;;;;;5043912;28;20195;-66
2022/09/09 07:26:30;;;;;;;2.33;1.93;;;17.40;99.90;;;;;;5047510;28;20198;-72
2022/09/09 07:28:57;;;;;;;5.10;2.37;;;17.50;99.90;;;;;;5053094;28;20329;-68
2022/09/09 07:31:30;;;;;;;3.97;2.37;;;17.60;99.90;;;;;;5056364;28;20219;-67
2022/09/09 07:33:56;;;;;;;4.53;2.40;;;17.80;99.90;;;;;;5052656;28;20304;-67
2022/09/09 07:36:25;;;;;;;4.33;2.50;;;18.00;99.90;;;;;;5054195;28;20191;-66
2022/09/09 07:38:54;;;;;;;4.17;1.90;;;18.20;99.90;;;;;;5051203;28;20209;-66
2022/09/09 07:41:25;;;;;;;6.93;2.30;;;18.40;99.90;;;;;;5046358;28;20571;-66
2022/09/09 07:43:53;;;;;;;2.70;2.27;;;18.50;99.90;;;;;;5053789;28;20205;-65
2022/09/09 07:46:20;;;;;;;4.83;2.23;;;18.70;99.90;;;;;;5058105;28;20244;-66
2022/09/09 07:48:51;;;;;;;2.53;2.03;;;18.90;99.90;;;;;;5053532;28;20212;-66
2022/09/09 07:51:19;;;;;;;2.47;2.20;;;19.00;99.90;;;;;;5054881;28;20216;-67
2022/09/09 07:53:46;;;;;;;2.70;1.83;;;18.90;99.90;;;;;;5058150;28;20195;-67
2022/09/09 07:56:13;;;;;;;9.47;2.03;;;19.00;99.90;;;;;;5052687;28;20579;-67
2022/09/09 07:58:40;;;;;;;3.60;1.80;;;19.00;99.90;;;;;;5050351;28;20218;-67
2022/09/09 08:01:15;;;;;;;3.43;1.90;;;19.00;99.90;;;;;;5056633;28;20216;-67
2022/09/09 08:03:41;;;;;;;3.03;1.77;;;19.10;99.90;;;;;;5049552;28;20748;-67
2022/09/09 08:06:08;;;;;;;2.63;1.70;;;19.10;99.90;;;;;;5052076;28;20275;-67
2022/09/09 08:08:35;;;;;;;4.27;1.80;;;19.10;99.90;;;;;;5052276;28;20664;-67
2022/09/09 08:11:07;;;;;;;2.23;1.73;;;19.20;99.90;;;;;;5063891;28;20192;-67
2022/09/09 08:13:36;;;;;;;2.10;1.47;;;19.20;99.90;;;;;;5051932;28;20199;-67
2022/09/09 08:16:14;;;;;;;3.10;1.77;;;19.40;99.90;;;;;;5051623;28;20226;-71
2022/09/09 08:18:40;;;;;;;5.57;1.70;;;19.40;99.90;;;;;;5049353;28;20778;-67
2022/09/09 08:21:08;;;;;;;6.13;1.47;;;19.50;99.90;;;;;;5062083;28;20226;-68
2022/09/09 08:23:34;;;;;;;2.00;1.83;;;19.60;99.90;;;;;;5051851;28;20202;-68
2022/09/09 08:26:05;;;;;;;2.43;1.53;;;19.60;99.90;;;;;;5054188;28;20278;-68
2022/09/09 08:28:31;;;;;;;2.57;1.90;;;19.50;99.90;;;;;;5055501;28;20208;-67
2022/09/09 08:31:04;;;;;;;4.33;2.07;;;19.50;99.90;;;;;;5052023;28;20220;-66
2022/09/09 08:33:29;;;;;;;4.27;2.13;;;19.50;99.90;;;;;;5051561;28;20293;-65
2022/09/09 08:35:55;;;;;;;2.97;1.50;;;19.50;99.90;;;;;;5046501;28;20191;-71
2022/09/09 08:38:20;;;;;;;5.13;1.57;;;19.60;99.90;;;;;;5046690;28;20285;-67
2022/09/09 08:40:50;;;;;;;1.93;1.47;;;19.50;99.90;;;;;;5048989;28;20662;-66
2022/09/09 08:43:18;;;;;;;3.10;1.83;;;19.60;99.90;;;;;;5052260;28;20204;-66
2022/09/09 08:45:57;;;;;;;1.87;1.57;;;19.70;99.90;;;;;;5057645;28;20208;-63
2022/09/09 08:48:54;;;;;;;3.83;1.57;;;19.70;99.90;;;;;;5054919;28;20702;-67
2022/09/09 08:51:20;;;;;;;3.00;1.70;;;19.70;99.90;;;;;;5053300;28;20212;-66
2022/09/09 08:53:49;;;;;;;2.53;1.83;;;19.60;99.90;;;;;;5058432;28;20205;-66
2022/09/09 08:56:21;;;;;;;5.33;1.80;;;19.70;99.90;;;;;;5050473;28;20334;-66
2022/09/09 08:58:52;;;;;;;2.97;1.73;;;19.60;99.90;;;;;;5054506;28;20221;-66
2022/09/09 09:01:34;;;;;;;1.70;1.60;;;19.60;99.90;;;;;;5056755;28;20576;-67
2022/09/09 09:04:37;;;;;;;4.77;1.80;;;19.70;99.90;;;;;;5053221;28;20199;-68
2022/09/09 09:07:25;;;;;;;9.47;1.77;;;19.70;99.90;;;;;;5059951;28;20209;-67
2022/09/09 09:10:20;;;;;;;3.37;1.47;;;19.80;99.90;;;;;;5053924;28;20210;-68
2022/09/09 09:12:47;;;;;;;3.83;1.60;;;19.80;99.90;;;;;;5055401;28;20761;-66
2022/09/09 09:15:25;;;;;;;2.47;1.67;;;19.90;99.90;;;;;;5056001;28;20191;-66
2022/09/09 09:17:50;;;;;;;2.77;1.43;;;19.90;99.90;;;;;;5034221;28;20197;-65
2022/09/09 09:20:18;;;;;;;1.57;1.47;;;20.00;99.90;;;;;;5051273;28;20208;-65
2022/09/09 09:22:54;;;;;;;2.67;1.73;;;20.10;99.90;;;;;;5055125;28;20207;-66
2022/09/09 09:25:22;;;;;;;1.50;1.40;;;20.20;99.90;;;;;;5055520;28;20352;-66
2022/09/09 09:28:05;;;;;;;1.70;1.60;;;20.40;99.90;;;;;;5054823;28;20241;-66
2022/09/09 09:30:45;;;;;;;1.90;1.43;;;20.50;99.90;;;;;;5055969;28;20189;-66
2022/09/09 09:33:37;;;;;;;2.30;1.50;;;20.70;99.90;;;;;;5054058;28;20240;-67
2022/09/09 09:36:08;;;;;;;3.57;1.80;;;20.90;99.90;;;;;;5057300;28;20189;-68
2022/09/09 09:38:34;;;;;;;1.83;1.53;;;20.90;99.90;;;;;;5053059;28;20523;-66
2022/09/09 09:41:00;;;;;;;3.03;1.13;;;21.10;99.90;;;;;;5055794;28;20262;-67
2022/09/09 09:43:34;;;;;;;1.37;1.10;;;21.10;99.90;;;;;;5054988;28;20207;-66
2022/09/09 09:46:02;;;;;;;2.73;1.50;;;21.10;99.90;;;;;;5056550;28;20277;-67
2022/09/09 09:48:28;;;;;;;2.23;1.60;;;21.00;99.90;;;;;;5051885;28;20372;-68
2022/09/09 09:51:00;;;;;;;1.53;1.43;;;21.10;99.90;;;;;;5057059;28;20210;-69
2022/09/09 09:53:28;;;;;;;1.60;1.10;;;21.10;99.90;;;;;;5054424;28;20216;-67
2022/09/09 09:56:04;;;;;;;4.27;1.50;;;21.10;99.90;;;;;;5056016;28;20258;-67
2022/09/09 09:58:50;;;;;;;2.50;1.30;;;20.90;99.90;;;;;;5052422;28;20706;-68
2022/09/09 10:01:35;;;;;;;2.00;1.60;;;20.80;99.90;;;;;;5056122;28;20178;-68
2022/09/09 10:04:03;;;;;;;3.27;1.33;;;20.90;99.90;;;;;;5055894;28;20209;-67
2022/09/09 10:06:33;;;;;;;4.50;1.57;;;21.00;99.90;;;;;;5056763;28;20182;-66
2022/09/09 10:08:59;;;;;;;4.50;1.60;;;21.10;99.90;;;;;;5052894;28;20293;-67
2022/09/09 10:12:06;;;;;;;3.77;2.07;;;21.20;99.90;;;;;;5056555;28;20236;-70
2022/09/09 10:14:52;;;;;;;2.13;1.47;;;21.10;99.90;;;;;;5052701;28;20537;-67
2022/09/09 10:17:41;;;;;;;4.57;1.40;;;21.00;99.90;;;;;;5055484;28;20734;-68
2022/09/09 10:20:38;;;;;;;3.43;1.63;;;21.10;99.90;;;;;;5055516;28;20236;-68
2022/09/09 10:23:37;;;;;;;4.23;1.67;;;21.30;99.90;;;;;;5055312;28;20218;-68
2022/09/09 10:26:33;;;;;;;2.17;1.67;;;21.20;99.90;;;;;;5039300;28;20183;-68
2022/09/09 10:29:30;;;;;;;2.20;1.33;;;21.30;99.90;;;;;;5051572;28;20224;-68
2022/09/09 10:32:29;;;;;;;2.07;1.33;;;21.30;99.90;;;;;;5055781;28;20210;-66
2022/09/09 10:35:14;;;;;;;3.63;1.93;;;21.40;99.90;;;;;;5053379;28;20186;-67
2022/09/09 10:38:04;;;;;;;4.93;2.03;;;21.50;99.90;;;;;;5056135;28;20664;-67
2022/09/09 10:40:32;;;;;;;2.90;1.47;;;21.50;99.90;;;;;;5055136;28;20201;-67
2022/09/09 10:43:10;;;;;;;1.83;1.37;;;21.60;99.90;;;;;;5056490;28;20247;-66
2022/09/09 10:45:43;;;;;;;2.90;1.63;;;21.90;99.90;;;;;;5054157;28;20194;-68
2022/09/09 10:48:37;;;;;;;2.60;1.30;;;22.10;99.90;;;;;;5054957;28;20912;-66
2022/09/09 10:51:21;;;;;;;2.97;1.10;;;22.10;99.90;;;;;;5030945;28;20214;-67
2022/09/09 10:54:18;;;;;;;2.83;1.60;;;21.90;99.90;;;;;;5053037;28;20206;-67
2022/09/09 10:56:50;;;;;;;2.60;1.13;;;21.90;99.90;;;;;;5058396;28;20189;-67
2022/09/09 10:59:31;;;;;;;2.67;1.03;;;22.10;99.90;;;;;;5049969;28;20215;-66
2022/09/09 11:02:05;;;;;;;1.23;0.80;;;22.30;99.90;;;;;;5051193;28;20229;-68
2022/09/09 11:04:40;;;;;;;2.40;1.20;;;22.60;99.90;;;;;;5052878;28;20200;-67
2022/09/09 11:07:09;;;;;;;2.57;1.33;;;22.70;99.90;;;;;;5060755;28;20332;-68
2022/09/09 11:09:43;;;;;;;3.60;1.40;;;22.60;99.90;;;;;;5062625;28;20684;-68
2022/09/09 11:12:17;;;;;;;1.73;1.17;;;22.60;99.90;;;;;;5056796;28;20546;-67
2022/09/09 11:14:51;;;;;;;3.50;1.13;;;22.70;99.90;;;;;;5060005;28;20659;-68
2022/09/09 11:17:23;;;;;;;1.00;1.00;;;22.80;99.90;;;;;;5061422;28;20717;-67
2022/09/09 11:19:48;;;;;;;4.23;1.33;;;22.80;99.90;;;;;;5054522;28;20664;-68
2022/09/09 11:22:33;;;;;;;2.87;1.20;;;22.90;99.90;;;;;;5040613;28;20206;-66
2022/09/09 11:25:10;;;;;;;2.30;1.20;;;23.30;99.90;;;;;;5063550;28;20262;-68
2022/09/09 11:27:42;;;;;;;2.03;1.33;;;23.30;99.90;;;;;;5056959;28;20186;-68
2022/09/09 11:30:30;;;;;;;2.63;1.23;;;23.30;99.90;;;;;;5052162;28;20567;-68
2022/09/09 11:33:11;;;;;;;5.25;1.30;;;23.60;99.90;;;;;;5049905;28;20206;-69
2022/09/09 11:36:00;;;;;;;0.93;0.90;;;23.80;99.90;;;;;;5041599;28;20292;-68
2022/09/09 11:38:46;;;;;;;2.07;1.10;;;24.10;99.90;;;;;;5056200;28;20587;-68
2022/09/09 11:41:13;;;;;;;1.90;1.10;;;24.20;99.90;;;;;;5055449;28;20196;-68
2022/09/09 11:43:46;;;;;;;2.57;1.20;;;24.20;99.80;;;;;;5050474;28;20662;-68
2022/09/09 11:46:15;;;;;;;3.53;1.43;;;24.10;99.80;;;;;;5061566;28;20205;-67
2022/09/09 11:48:45;;;;;;;2.35;1.20;;;23.90;99.80;;;;;;5004654;28;20268;-68
2022/09/09 11:51:25;;;;;;;3.27;1.20;;;24.00;99.90;;;;;;5056592;28;20238;-68
2022/09/09 11:53:53;;;;;;;1.50;1.30;;;24.10;99.60;;;;;;5052582;28;20187;-68
2022/09/09 11:56:31;;;;;;;2.70;1.30;;;24.20;99.30;;;;;;5063100;28;20661;-67
2022/09/09 11:58:58;;;;;;;2.50;1.13;;;24.40;98.90;;;;;;5057051;28;20257;-68
2022/09/09 12:01:35;;;;;;;1.90;1.23;;;24.80;97.20;;;;;;5054442;28;20190;-67
2022/09/09 12:04:16;;;;;;;2.28;1.13;;;25.20;96.20;;;;;;5054480;28;20686;-68
2022/09/09 12:06:46;;;;;;;1.83;0.80;;;25.50;96.00;;;;;;5061384;28;20660;-69
2022/09/09 12:09:24;;;;;;;1.23;0.80;;;25.80;95.20;;;;;;5047158;28;20202;-68
2022/09/09 12:11:50;;;;;;;1.25;0.80;;;25.90;94.70;;;;;;5046289;28;20212;-67
2022/09/09 12:14:36;;;;;;;1.60;1.00;;;25.90;95.60;;;;;;5049119;28;20203;-67
2022/09/09 12:17:25;;;;;;;1.40;0.82;;;26.20;93.70;;;;;;5057985;28;20196;-67
2022/09/09 12:20:10;;;;;;;2.63;1.05;;;26.60;93.30;;;;;;5056050;28;20202;-67
2022/09/09 12:23:05;;;;;;;1.48;0.85;;;26.90;91.80;;;;;;5060289;28;20195;-68
2022/09/09 12:25:58;;;;;;;1.80;1.10;;;26.70;92.20;;;;;;5054899;28;20205;-68
2022/09/09 12:28:47;;;;;;;1.60;1.38;;;26.60;92.50;;;;;;5060108;28;20197;-68
2022/09/09 12:31:25;;;;;;;1.75;1.20;;;26.50;93.30;;;;;;5060532;28;20199;-68
2022/09/09 12:33:52;;;;;;;4.20;1.48;;;26.40;93.10;;;;;;5051567;28;20204;-68
2022/09/09 12:36:21;;;;;;;3.03;0.95;;;26.30;92.00;;;;;;5054735;28;20188;-67
2022/09/09 12:38:47;;;;;;;3.25;1.42;;;26.00;92.40;;;;;;5058588;28;20283;-68
2022/09/09 12:41:21;;;;;;;4.03;1.02;;;25.90;92.40;;;;;;5052679;28;20241;-67
2022/09/09 12:43:46;;;;;;;2.90;1.20;;;25.80;91.70;;;;;;5055036;28;20293;-67
2022/09/09 12:46:31;;;;;;;2.83;1.05;;;25.80;92.40;;;;;;5052260;28;20273;-68
2022/09/09 12:48:57;;;;;;;5.03;0.98;;;25.90;92.40;;;;;;5055187;28;20183;-68
2022/09/09 12:51:30;;;;;;;4.82;1.48;;;25.90;91.80;;;;;;5057734;28;20218;-68
2022/09/09 12:53:56;;;;;;;3.17;1.10;;;26.10;91.60;;;;;;5055583;28;20182;-68
2022/09/09 12:56:29;;;;;;;2.78;1.15;;;26.40;90.60;;;;;;5062318;28;20177;-67
2022/09/09 12:58:56;;;;;;;2.30;0.90;;;26.50;90.90;;;;;;5052976;28;20213;-68
2022/09/09 13:01:33;;;;;;;2.97;1.05;;;26.10;90.10;;;;;;5057772;28;20681;-68
2022/09/09 13:03:59;;;;;;;1.48;1.10;;;25.70;89.60;;;;;;5063967;28;20235;-67
2022/09/09 13:06:27;;;;;;;3.33;1.23;;;25.30;89.70;;;;;;5058041;28;20282;-67
2022/09/09 13:08:54;;;;;;;1.17;0.50;;;25.00;90.50;;;;;;5059063;28;20198;-67
2022/09/09 13:11:31;;;;;;;2.50;1.35;;;24.70;90.40;;;;;;5052281;28;20268;-68
2022/09/09 13:13:58;;;;;;;1.52;0.95;;;24.60;91.00;;;;;;5055209;28;20537;-67